Flugplatz Buchel Airport

Bericht für ETSB

vom 23.02. um 22:20 UTC

Wind 10 kt aus 310°

Sichtweite 10 km oder mehr

Temperatur 4.0°C

Taupunkt 1.0°C

Luftfeuchtigkeit 81%

Luftdruck 1022 hPa

ETSB 232220Z AUTO 31010KT 9999 // ////// 04/01 Q1022 ///
Keine Prognose (TAF) verfügbar.
Impressum